This is the latest recevied weather packets stored in our database for station/object OE-11051. If no packets are shown the sender has not sent any weather packets the latest 10 day(s).
| Time | Temp. | Humidity | Pressure | Rain* | Wind** | Luminosity | Snow |
|---|---|---|---|---|---|---|---|
| 1787765707 | 25.56° C | 52% | 1014.6 hPa | 0 mm | - | 64 W/m² | - |
| 1787765106 | 26.11° C | 50% | 1014.6 hPa | 0 mm | - | 103 W/m² | - |
| 1787764280 | 26.11° C | 49% | 1014.6 hPa | 0 mm | - | 103 W/m² | - |
| 1787763907 | 26.11° C | 50% | 1014.5 hPa | 0 mm | - | 116 W/m² | - |
| 1787763306 | 26.11° C | 48% | 1014.4 hPa | 0 mm | - | 187 W/m² | - |
| 1787762480 | 26.11° C | 48% | 1014.6 hPa | 0 mm | - | 168 W/m² | - |
| 1787762107 | 26.67° C | 48% | 1014.6 hPa | 0 mm | - | 174 W/m² | - |
| 1787761507 | 26.67° C | 48% | 1014.8 hPa | 0 mm | - | 232 W/m² | - |
| 1787760680 | 26.67° C | 49% | 1014.9 hPa | 0 mm | - | 297 W/m² | - |
| 1787760307 | 26.67° C | 48% | 1015 hPa | 0 mm | - | 322 W/m² | - |
| 1787759707 | 26.67° C | 48% | 1015 hPa | 0 mm | - | 348 W/m² | - |
| 1787758880 | 27.22° C | 48% | 1014.8 hPa | 0 mm | - | 361 W/m² | - |
| 1787758506 | 26.67° C | 48% | 1015 hPa | 0 mm | - | 374 W/m² | - |
| 1787757907 | 27.22° C | 48% | 1015.2 hPa | 0 mm | - | 438 W/m² | - |
| 1787757080 | 26.67° C | 49% | 1015.3 hPa | 0 mm | - | 471 W/m² | - |
| 1787756707 | 26.67° C | 49% | 1015.3 hPa | 0 mm | - | 496 W/m² | - |
| 1787756107 | 27.22° C | 48% | 1015.3 hPa | 0 mm | - | 413 W/m² | - |
| 1787755280 | 26.67° C | 49% | 1015.4 hPa | 0 mm | - | 535 W/m² | - |
| 1787754907 | 27.22° C | 49% | 1015.4 hPa | 0 mm | - | 329 W/m² | - |
| 1787754307 | 27.78° C | 48% | 1015.4 hPa | 0 mm | - | 542 W/m² | - |
| 1787753480 | 27.78° C | 47% | 1015.2 hPa | 0 mm | - | 612 W/m² | - |
| 1787753107 | 27.22° C | 50% | 1015.4 hPa | 0 mm | - | 606 W/m² | - |
| 1787752507 | 26.11° C | 51% | 1015.6 hPa | 0 mm | - | 612 W/m² | - |
| 1787751680 | 26.11° C | 49% | 1015.6 hPa | 0 mm | - | 509 W/m² | - |
| 1787751307 | 25.56° C | 51% | 1015.7 hPa | 0 mm | - | 380 W/m² | - |
* Rain latest hour (hover to see other rain measurements)
** Current wind speed in m/s (hover to see current wind gust speed)